sensor_id;sensor_type;location;lat;lon;timestamp;P1;durP1;ratioP1;P2;durP2;ratioP2
44428;SDS011;30134;47.866;-4.222;2023-07-22T00:01:53;6.68;;;4.15;;
44428;SDS011;30134;47.866;-4.222;2023-07-22T00:04:19;5.35;;;3.53;;
44428;SDS011;30134;47.866;-4.222;2023-07-22T00:06:45;4.43;;;3.47;;
44428;SDS011;30134;47.866;-4.222;2023-07-22T00:09:11;4.97;;;4.00;;
44428;SDS011;30134;47.866;-4.222;2023-07-22T00:11:37;4.63;;;3.42;;
44428;SDS011;30134;47.866;-4.222;2023-07-22T00:14:03;5.00;;;3.97;;
44428;SDS011;30134;47.866;-4.222;2023-07-22T00:16:31;4.10;;;3.40;;
44428;SDS011;30134;47.866;-4.222;2023-07-22T00:18:58;4.90;;;3.63;;
44428;SDS011;30134;47.866;-4.222;2023-07-22T00:21:24;6.30;;;3.65;;
44428;SDS011;30134;47.866;-4.222;2023-07-22T00:23:50;5.07;;;3.88;;
44428;SDS011;30134;47.866;-4.222;2023-07-22T00:26:16;5.18;;;3.70;;
44428;SDS011;30134;47.866;-4.222;2023-07-22T00:28:44;3.80;;;2.65;;
44428;SDS011;30134;47.866;-4.222;2023-07-22T00:31:13;4.47;;;3.30;;
44428;SDS011;30134;47.866;-4.222;2023-07-22T00:33:39;4.18;;;3.35;;
44428;SDS011;30134;47.866;-4.222;2023-07-22T00:36:05;6.35;;;3.38;;
44428;SDS011;30134;47.866;-4.222;2023-07-22T00:38:31;3.67;;;3.30;;
44428;SDS011;30134;47.866;-4.222;2023-07-22T00:40:57;6.15;;;3.40;;
44428;SDS011;30134;47.866;-4.222;2023-07-22T00:43:23;3.58;;;3.28;;
44428;SDS011;30134;47.866;-4.222;2023-07-22T00:45:51;3.78;;;3.08;;
44428;SDS011;30134;47.866;-4.222;2023-07-22T00:48:17;3.95;;;3.25;;
44428;SDS011;30134;47.866;-4.222;2023-07-22T00:50:43;3.63;;;3.10;;
44428;SDS011;30134;47.866;-4.222;2023-07-22T00:53:09;3.33;;;3.03;;
44428;SDS011;30134;47.866;-4.222;2023-07-22T00:55:36;3.38;;;2.70;;
44428;SDS011;30134;47.866;-4.222;2023-07-22T00:58:06;7.40;;;3.20;;
44428;SDS011;30134;47.866;-4.222;2023-07-22T01:00:32;4.18;;;3.08;;
44428;SDS011;30134;47.866;-4.222;2023-07-22T01:02:58;3.35;;;3.03;;
44428;SDS011;30134;47.866;-4.222;2023-07-22T01:05:25;4.07;;;3.20;;
44428;SDS011;30134;47.866;-4.222;2023-07-22T01:07:52;3.88;;;2.80;;
44428;SDS011;30134;47.866;-4.222;2023-07-22T01:10:19;3.95;;;3.08;;
44428;SDS011;30134;47.866;-4.222;2023-07-22T01:12:47;3.25;;;2.92;;
44428;SDS011;30134;47.866;-4.222;2023-07-22T01:15:13;4.43;;;2.72;;
44428;SDS011;30134;47.866;-4.222;2023-07-22T01:17:39;3.00;;;2.70;;
44428;SDS011;30134;47.866;-4.222;2023-07-22T01:20:06;5.63;;;3.17;;
44428;SDS011;30134;47.866;-4.222;2023-07-22T01:22:34;3.38;;;2.75;;
44428;SDS011;30134;47.866;-4.222;2023-07-22T01:25:01;4.70;;;3.10;;
44428;SDS011;30134;47.866;-4.222;2023-07-22T01:27:28;4.07;;;3.00;;
44428;SDS011;30134;47.866;-4.222;2023-07-22T01:30:01;4.07;;;3.10;;
44428;SDS011;30134;47.866;-4.222;2023-07-22T01:32:28;4.05;;;2.85;;
44428;SDS011;30134;47.866;-4.222;2023-07-22T01:34:54;3.30;;;2.90;;
44428;SDS011;30134;47.866;-4.222;2023-07-22T01:37:20;4.40;;;3.05;;
44428;SDS011;30134;47.866;-4.222;2023-07-22T01:39:46;3.63;;;2.65;;
44428;SDS011;30134;47.866;-4.222;2023-07-22T01:42:12;4.28;;;2.65;;
44428;SDS011;30134;47.866;-4.222;2023-07-22T01:44:39;3.50;;;2.83;;
44428;SDS011;30134;47.866;-4.222;2023-07-22T01:47:06;4.53;;;3.25;;
44428;SDS011;30134;47.866;-4.222;2023-07-22T01:49:32;3.45;;;2.88;;
44428;SDS011;30134;47.866;-4.222;2023-07-22T01:51:59;3.20;;;2.80;;
44428;SDS011;30134;47.866;-4.222;2023-07-22T01:54:26;3.83;;;3.25;;
44428;SDS011;30134;47.866;-4.222;2023-07-22T01:56:55;3.75;;;2.72;;
44428;SDS011;30134;47.866;-4.222;2023-07-22T01:59:21;3.65;;;2.60;;
44428;SDS011;30134;47.866;-4.222;2023-07-22T02:01:47;3.83;;;2.70;;
44428;SDS011;30134;47.866;-4.222;2023-07-22T02:04:13;3.40;;;2.78;;
44428;SDS011;30134;47.866;-4.222;2023-07-22T02:06:39;3.28;;;2.97;;
44428;SDS011;30134;47.866;-4.222;2023-07-22T02:09:05;3.53;;;2.80;;
44428;SDS011;30134;47.866;-4.222;2023-07-22T02:11:34;3.65;;;3.03;;
44428;SDS011;30134;47.866;-4.222;2023-07-22T02:14:01;3.67;;;2.70;;
44428;SDS011;30134;47.866;-4.222;2023-07-22T02:16:32;4.18;;;2.65;;
44428;SDS011;30134;47.866;-4.222;2023-07-22T02:19:04;3.13;;;2.78;;
44428;SDS011;30134;47.866;-4.222;2023-07-22T02:21:30;3.85;;;2.58;;
44428;SDS011;30134;47.866;-4.222;2023-07-22T02:23:56;2.75;;;2.55;;
44428;SDS011;30134;47.866;-4.222;2023-07-22T02:26:22;3.45;;;3.15;;
44428;SDS011;30134;47.866;-4.222;2023-07-22T02:28:49;3.40;;;2.78;;
44428;SDS011;30134;47.866;-4.222;2023-07-22T02:31:15;4.47;;;2.92;;
44428;SDS011;30134;47.866;-4.222;2023-07-22T02:33:40;3.58;;;2.67;;
44428;SDS011;30134;47.866;-4.222;2023-07-22T02:36:07;3.90;;;2.83;;
44428;SDS011;30134;47.866;-4.222;2023-07-22T02:38:33;3.53;;;2.70;;
44428;SDS011;30134;47.866;-4.222;2023-07-22T02:41:03;4.50;;;2.95;;
44428;SDS011;30134;47.866;-4.222;2023-07-22T02:43:31;3.70;;;2.58;;
44428;SDS011;30134;47.866;-4.222;2023-07-22T02:45:59;4.32;;;2.97;;
44428;SDS011;30134;47.866;-4.222;2023-07-22T02:48:30;3.33;;;2.83;;
44428;SDS011;30134;47.866;-4.222;2023-07-22T02:51:06;3.75;;;2.88;;
44428;SDS011;30134;47.866;-4.222;2023-07-22T02:53:34;3.28;;;2.78;;
44428;SDS011;30134;47.866;-4.222;2023-07-22T02:56:04;6.05;;;3.00;;
44428;SDS011;30134;47.866;-4.222;2023-07-22T02:58:36;3.33;;;3.03;;
44428;SDS011;30134;47.866;-4.222;2023-07-22T03:01:03;3.38;;;2.85;;
44428;SDS011;30134;47.866;-4.222;2023-07-22T03:03:34;3.67;;;2.80;;
44428;SDS011;30134;47.866;-4.222;2023-07-22T03:06:00;4.38;;;2.92;;
44428;SDS011;30134;47.866;-4.222;2023-07-22T03:08:28;15.88;;;11.65;;
44428;SDS011;30134;47.866;-4.222;2023-07-22T03:10:54;276.05;;;180.23;;
44428;SDS011;30134;47.866;-4.222;2023-07-22T03:13:21;289.15;;;202.40;;
44428;SDS011;30134;47.866;-4.222;2023-07-22T03:15:47;292.00;;;207.05;;
44428;SDS011;30134;47.866;-4.222;2023-07-22T03:18:13;221.23;;;151.32;;
44428;SDS011;30134;47.866;-4.222;2023-07-22T03:20:40;189.20;;;130.40;;
44428;SDS011;30134;47.866;-4.222;2023-07-22T03:23:06;168.95;;;114.22;;
44428;SDS011;30134;47.866;-4.222;2023-07-22T03:25:33;166.55;;;115.45;;
44428;SDS011;30134;47.866;-4.222;2023-07-22T03:28:01;167.90;;;109.43;;
44428;SDS011;30134;47.866;-4.222;2023-07-22T03:30:31;144.60;;;99.07;;
44428;SDS011;30134;47.866;-4.222;2023-07-22T03:32:58;139.65;;;97.88;;
44428;SDS011;30134;47.866;-4.222;2023-07-22T03:35:26;129.93;;;93.40;;
44428;SDS011;30134;47.866;-4.222;2023-07-22T03:37:53;117.60;;;84.85;;
44428;SDS011;30134;47.866;-4.222;2023-07-22T03:40:19;108.50;;;78.75;;
44428;SDS011;30134;47.866;-4.222;2023-07-22T03:42:49;106.30;;;73.57;;
44428;SDS011;30134;47.866;-4.222;2023-07-22T03:45:16;94.65;;;67.18;;
44428;SDS011;30134;47.866;-4.222;2023-07-22T03:47:49;96.90;;;69.38;;
44428;SDS011;30134;47.866;-4.222;2023-07-22T03:50:18;90.75;;;63.67;;
44428;SDS011;30134;47.866;-4.222;2023-07-22T03:52:44;88.03;;;59.15;;
44428;SDS011;30134;47.866;-4.222;2023-07-22T03:55:10;80.82;;;56.80;;
44428;SDS011;30134;47.866;-4.222;2023-07-22T03:57:36;82.30;;;56.45;;
44428;SDS011;30134;47.866;-4.222;2023-07-22T04:00:02;71.25;;;49.00;;
44428;SDS011;30134;47.866;-4.222;2023-07-22T04:02:34;64.72;;;45.20;;
44428;SDS011;30134;47.866;-4.222;2023-07-22T04:05:00;61.97;;;44.40;;
44428;SDS011;30134;47.866;-4.222;2023-07-22T04:07:26;59.47;;;41.92;;
44428;SDS011;30134;47.866;-4.222;2023-07-22T04:09:52;56.33;;;39.65;;
44428;SDS011;30134;47.866;-4.222;2023-07-22T04:12:18;50.88;;;37.97;;
44428;SDS011;30134;47.866;-4.222;2023-07-22T04:14:44;46.00;;;33.80;;
44428;SDS011;30134;47.866;-4.222;2023-07-22T04:17:10;45.30;;;33.60;;
44428;SDS011;30134;47.866;-4.222;2023-07-22T04:19:36;44.83;;;32.70;;
44428;SDS011;30134;47.866;-4.222;2023-07-22T04:22:02;42.25;;;30.85;;
44428;SDS011;30134;47.866;-4.222;2023-07-22T04:24:32;39.78;;;27.65;;
44428;SDS011;30134;47.866;-4.222;2023-07-22T04:26:59;38.00;;;28.83;;
44428;SDS011;30134;47.866;-4.222;2023-07-22T04:29:28;35.92;;;25.13;;
44428;SDS011;30134;47.866;-4.222;2023-07-22T04:31:58;33.47;;;25.45;;
44428;SDS011;30134;47.866;-4.222;2023-07-22T04:34:25;30.63;;;22.77;;
44428;SDS011;30134;47.866;-4.222;2023-07-22T04:36:55;28.20;;;20.80;;
44428;SDS011;30134;47.866;-4.222;2023-07-22T04:39:21;29.77;;;21.52;;
44428;SDS011;30134;47.866;-4.222;2023-07-22T04:41:48;25.08;;;18.10;;
44428;SDS011;30134;47.866;-4.222;2023-07-22T04:44:14;24.38;;;18.70;;
44428;SDS011;30134;47.866;-4.222;2023-07-22T04:46:40;23.40;;;17.30;;
44428;SDS011;30134;47.866;-4.222;2023-07-22T04:49:06;23.58;;;16.98;;
44428;SDS011;30134;47.866;-4.222;2023-07-22T04:51:32;20.08;;;15.20;;
44428;SDS011;30134;47.866;-4.222;2023-07-22T04:53:58;20.15;;;14.98;;
44428;SDS011;30134;47.866;-4.222;2023-07-22T04:56:25;18.10;;;13.32;;
44428;SDS011;30134;47.866;-4.222;2023-07-22T04:58:51;19.23;;;13.88;;
44428;SDS011;30134;47.866;-4.222;2023-07-22T05:01:17;17.48;;;12.77;;
44428;SDS011;30134;47.866;-4.222;2023-07-22T05:03:43;13.77;;;11.18;;
44428;SDS011;30134;47.866;-4.222;2023-07-22T05:06:09;14.10;;;11.25;;
44428;SDS011;30134;47.866;-4.222;2023-07-22T05:08:35;14.57;;;11.30;;
44428;SDS011;30134;47.866;-4.222;2023-07-22T05:11:02;14.40;;;10.27;;
44428;SDS011;30134;47.866;-4.222;2023-07-22T05:13:29;13.43;;;10.52;;
44428;SDS011;30134;47.866;-4.222;2023-07-22T05:15:55;12.40;;;9.07;;
44428;SDS011;30134;47.866;-4.222;2023-07-22T05:18:21;13.50;;;9.55;;
44428;SDS011;30134;47.866;-4.222;2023-07-22T05:20:47;10.70;;;8.60;;
44428;SDS011;30134;47.866;-4.222;2023-07-22T05:23:13;12.93;;;8.45;;
44428;SDS011;30134;47.866;-4.222;2023-07-22T05:25:39;11.20;;;8.27;;
44428;SDS011;30134;47.866;-4.222;2023-07-22T05:28:05;10.52;;;8.07;;
44428;SDS011;30134;47.866;-4.222;2023-07-22T05:30:31;8.93;;;7.07;;
44428;SDS011;30134;47.866;-4.222;2023-07-22T05:35:29;9.27;;;6.47;;
44428;SDS011;30134;47.866;-4.222;2023-07-22T05:37:55;8.52;;;6.05;;
44428;SDS011;30134;47.866;-4.222;2023-07-22T05:40:21;8.02;;;5.90;;
44428;SDS011;30134;47.866;-4.222;2023-07-22T05:42:47;7.55;;;5.97;;
44428;SDS011;30134;47.866;-4.222;2023-07-22T05:45:13;8.32;;;6.00;;
44428;SDS011;30134;47.866;-4.222;2023-07-22T05:47:41;7.07;;;5.55;;
44428;SDS011;30134;47.866;-4.222;2023-07-22T05:50:10;6.22;;;5.28;;
44428;SDS011;30134;47.866;-4.222;2023-07-22T05:52:36;6.85;;;5.22;;
44428;SDS011;30134;47.866;-4.222;2023-07-22T05:55:02;6.35;;;4.63;;
44428;SDS011;30134;47.866;-4.222;2023-07-22T05:57:30;6.32;;;5.03;;
44428;SDS011;30134;47.866;-4.222;2023-07-22T05:59:56;5.50;;;4.40;;
44428;SDS011;30134;47.866;-4.222;2023-07-22T06:02:22;4.93;;;4.43;;
44428;SDS011;30134;47.866;-4.222;2023-07-22T06:04:48;5.60;;;4.68;;
44428;SDS011;30134;47.866;-4.222;2023-07-22T06:07:14;4.43;;;3.90;;
44428;SDS011;30134;47.866;-4.222;2023-07-22T06:09:40;5.43;;;4.28;;
44428;SDS011;30134;47.866;-4.222;2023-07-22T06:12:06;5.15;;;4.10;;
44428;SDS011;30134;47.866;-4.222;2023-07-22T06:14:35;5.03;;;3.88;;
44428;SDS011;30134;47.866;-4.222;2023-07-22T06:17:01;4.68;;;4.00;;
44428;SDS011;30134;47.866;-4.222;2023-07-22T06:19:27;3.97;;;3.47;;
44428;SDS011;30134;47.866;-4.222;2023-07-22T06:21:53;6.10;;;3.90;;
44428;SDS011;30134;47.866;-4.222;2023-07-22T06:24:19;3.75;;;3.33;;
44428;SDS011;30134;47.866;-4.222;2023-07-22T06:26:45;4.15;;;3.25;;
44428;SDS011;30134;47.866;-4.222;2023-07-22T06:29:11;3.58;;;3.13;;
44428;SDS011;30134;47.866;-4.222;2023-07-22T06:31:37;4.00;;;3.30;;
44428;SDS011;30134;47.866;-4.222;2023-07-22T06:34:03;3.47;;;3.17;;
44428;SDS011;30134;47.866;-4.222;2023-07-22T06:36:29;4.25;;;3.22;;
44428;SDS011;30134;47.866;-4.222;2023-07-22T06:38:55;3.50;;;3.20;;
44428;SDS011;30134;47.866;-4.222;2023-07-22T06:41:24;4.38;;;3.33;;
44428;SDS011;30134;47.866;-4.222;2023-07-22T06:43:50;3.78;;;2.97;;
44428;SDS011;30134;47.866;-4.222;2023-07-22T06:46:16;3.40;;;3.10;;
44428;SDS011;30134;47.866;-4.222;2023-07-22T06:48:42;3.90;;;3.10;;
44428;SDS011;30134;47.866;-4.222;2023-07-22T06:51:08;4.72;;;3.42;;
44428;SDS011;30134;47.866;-4.222;2023-07-22T06:53:34;3.35;;;2.90;;
44428;SDS011;30134;47.866;-4.222;2023-07-22T06:56:00;3.28;;;2.60;;
44428;SDS011;30134;47.866;-4.222;2023-07-22T06:58:26;4.57;;;3.00;;
44428;SDS011;30134;47.866;-4.222;2023-07-22T07:00:53;4.50;;;3.10;;
44428;SDS011;30134;47.866;-4.222;2023-07-22T07:03:20;3.15;;;2.85;;
44428;SDS011;30134;47.866;-4.222;2023-07-22T07:05:53;3.50;;;2.97;;
44428;SDS011;30134;47.866;-4.222;2023-07-22T07:08:20;4.25;;;3.22;;
44428;SDS011;30134;47.866;-4.222;2023-07-22T07:10:47;4.00;;;3.15;;
44428;SDS011;30134;47.866;-4.222;2023-07-22T07:13:13;3.60;;;2.80;;
44428;SDS011;30134;47.866;-4.222;2023-07-22T07:15:39;4.32;;;3.10;;
44428;SDS011;30134;47.866;-4.222;2023-07-22T07:18:06;4.47;;;3.30;;
44428;SDS011;30134;47.866;-4.222;2023-07-22T07:20:33;5.20;;;4.07;;
44428;SDS011;30134;47.866;-4.222;2023-07-22T07:22:58;3.60;;;3.08;;
44428;SDS011;30134;47.866;-4.222;2023-07-22T07:25:24;5.75;;;3.75;;
44428;SDS011;30134;47.866;-4.222;2023-07-22T07:27:50;3.92;;;3.35;;
44428;SDS011;30134;47.866;-4.222;2023-07-22T07:30:17;4.45;;;3.40;;
44428;SDS011;30134;47.866;-4.222;2023-07-22T07:32:44;5.47;;;4.20;;
44428;SDS011;30134;47.866;-4.222;2023-07-22T07:35:10;4.55;;;3.63;;
44428;SDS011;30134;47.866;-4.222;2023-07-22T07:37:36;4.47;;;3.88;;
44428;SDS011;30134;47.866;-4.222;2023-07-22T07:40:03;7.10;;;3.85;;
44428;SDS011;30134;47.866;-4.222;2023-07-22T07:42:29;4.68;;;3.72;;
44428;SDS011;30134;47.866;-4.222;2023-07-22T07:44:55;4.00;;;3.60;;
44428;SDS011;30134;47.866;-4.222;2023-07-22T07:47:21;5.03;;;3.83;;
44428;SDS011;30134;47.866;-4.222;2023-07-22T07:49:47;5.07;;;3.78;;
44428;SDS011;30134;47.866;-4.222;2023-07-22T07:52:14;5.25;;;4.38;;
44428;SDS011;30134;47.866;-4.222;2023-07-22T07:54:40;5.47;;;4.13;;
44428;SDS011;30134;47.866;-4.222;2023-07-22T07:57:06;5.13;;;3.83;;
44428;SDS011;30134;47.866;-4.222;2023-07-22T07:59:31;5.03;;;4.53;;
44428;SDS011;30134;47.866;-4.222;2023-07-22T08:01:57;7.15;;;4.53;;
44428;SDS011;30134;47.866;-4.222;2023-07-22T08:04:23;5.07;;;4.55;;
44428;SDS011;30134;47.866;-4.222;2023-07-22T08:06:49;7.28;;;4.82;;
44428;SDS011;30134;47.866;-4.222;2023-07-22T08:09:16;5.60;;;4.80;;
44428;SDS011;30134;47.866;-4.222;2023-07-22T08:11:44;6.32;;;4.85;;
44428;SDS011;30134;47.866;-4.222;2023-07-22T08:14:10;5.90;;;4.70;;
44428;SDS011;30134;47.866;-4.222;2023-07-22T08:16:36;4.88;;;4.38;;
44428;SDS011;30134;47.866;-4.222;2023-07-22T08:19:02;6.43;;;5.00;;
44428;SDS011;30134;47.866;-4.222;2023-07-22T08:21:29;5.47;;;4.68;;
44428;SDS011;30134;47.866;-4.222;2023-07-22T08:23:55;6.85;;;4.95;;
44428;SDS011;30134;47.866;-4.222;2023-07-22T08:26:22;5.72;;;4.90;;
44428;SDS011;30134;47.866;-4.222;2023-07-22T08:28:48;5.68;;;5.07;;
44428;SDS011;30134;47.866;-4.222;2023-07-22T08:31:14;9.38;;;5.45;;
44428;SDS011;30134;47.866;-4.222;2023-07-22T08:33:40;9.68;;;5.35;;
44428;SDS011;30134;47.866;-4.222;2023-07-22T08:36:06;6.82;;;5.68;;
44428;SDS011;30134;47.866;-4.222;2023-07-22T08:38:32;6.78;;;5.53;;
44428;SDS011;30134;47.866;-4.222;2023-07-22T08:40:58;8.73;;;5.47;;
44428;SDS011;30134;47.866;-4.222;2023-07-22T08:43:24;9.93;;;6.07;;
44428;SDS011;30134;47.866;-4.222;2023-07-22T08:45:59;8.43;;;6.03;;
44428;SDS011;30134;47.866;-4.222;2023-07-22T08:48:26;9.70;;;6.65;;
44428;SDS011;30134;47.866;-4.222;2023-07-22T08:51:17;10.23;;;7.22;;
44428;SDS011;30134;47.866;-4.222;2023-07-22T08:53:44;15.70;;;10.90;;
44428;SDS011;30134;47.866;-4.222;2023-07-22T08:56:11;21.30;;;10.95;;
44428;SDS011;30134;47.866;-4.222;2023-07-22T08:58:38;21.27;;;11.07;;
44428;SDS011;30134;47.866;-4.222;2023-07-22T09:01:06;16.83;;;11.20;;
44428;SDS011;30134;47.866;-4.222;2023-07-22T09:03:33;17.02;;;12.27;;
44428;SDS011;30134;47.866;-4.222;2023-07-22T09:05:59;16.38;;;10.90;;
44428;SDS011;30134;47.866;-4.222;2023-07-22T09:08:27;21.17;;;11.73;;
44428;SDS011;30134;47.866;-4.222;2023-07-22T09:10:53;17.02;;;11.80;;
44428;SDS011;30134;47.866;-4.222;2023-07-22T09:13:19;17.25;;;13.15;;
44428;SDS011;30134;47.866;-4.222;2023-07-22T09:15:46;16.00;;;11.73;;
44428;SDS011;30134;47.866;-4.222;2023-07-22T09:18:15;14.98;;;11.65;;
44428;SDS011;30134;47.866;-4.222;2023-07-22T09:20:41;17.23;;;11.10;;
44428;SDS011;30134;47.866;-4.222;2023-07-22T09:23:07;15.68;;;11.30;;
44428;SDS011;30134;47.866;-4.222;2023-07-22T09:25:33;15.60;;;10.95;;
44428;SDS011;30134;47.866;-4.222;2023-07-22T09:28:00;17.42;;;10.18;;
44428;SDS011;30134;47.866;-4.222;2023-07-22T09:30:32;16.92;;;11.52;;
44428;SDS011;30134;47.866;-4.222;2023-07-22T09:33:07;16.25;;;11.10;;
44428;SDS011;30134;47.866;-4.222;2023-07-22T09:35:47;18.00;;;12.43;;
44428;SDS011;30134;47.866;-4.222;2023-07-22T09:38:14;17.02;;;12.20;;
44428;SDS011;30134;47.866;-4.222;2023-07-22T09:40:51;20.85;;;12.55;;
44428;SDS011;30134;47.866;-4.222;2023-07-22T09:43:18;20.98;;;12.32;;
44428;SDS011;30134;47.866;-4.222;2023-07-22T09:45:46;18.60;;;13.32;;
44428;SDS011;30134;47.866;-4.222;2023-07-22T09:48:13;78.65;;;52.67;;
44428;SDS011;30134;47.866;-4.222;2023-07-22T09:50:40;24.77;;;16.30;;
44428;SDS011;30134;47.866;-4.222;2023-07-22T09:53:06;19.08;;;13.05;;
44428;SDS011;30134;47.866;-4.222;2023-07-22T09:55:33;15.88;;;12.00;;
44428;SDS011;30134;47.866;-4.222;2023-07-22T09:58:02;18.33;;;11.38;;
44428;SDS011;30134;47.866;-4.222;2023-07-22T10:00:34;14.45;;;11.32;;
44428;SDS011;30134;47.866;-4.222;2023-07-22T10:03:03;16.05;;;11.93;;
44428;SDS011;30134;47.866;-4.222;2023-07-22T10:05:36;15.15;;;10.55;;
44428;SDS011;30134;47.866;-4.222;2023-07-22T10:08:04;17.10;;;11.50;;
44428;SDS011;30134;47.866;-4.222;2023-07-22T10:10:33;14.35;;;11.15;;
44428;SDS011;30134;47.866;-4.222;2023-07-22T10:13:02;14.43;;;10.68;;
44428;SDS011;30134;47.866;-4.222;2023-07-22T10:15:29;14.25;;;10.13;;
44428;SDS011;30134;47.866;-4.222;2023-07-22T10:18:01;14.00;;;10.77;;
44428;SDS011;30134;47.866;-4.222;2023-07-22T10:20:30;15.20;;;10.52;;
44428;SDS011;30134;47.866;-4.222;2023-07-22T10:22:59;13.63;;;11.23;;
44428;SDS011;30134;47.866;-4.222;2023-07-22T10:25:26;15.25;;;10.68;;
44428;SDS011;30134;47.866;-4.222;2023-07-22T10:27:53;13.75;;;10.43;;
44428;SDS011;30134;47.866;-4.222;2023-07-22T10:30:19;11.77;;;10.10;;
44428;SDS011;30134;47.866;-4.222;2023-07-22T10:32:46;14.70;;;10.68;;
44428;SDS011;30134;47.866;-4.222;2023-07-22T10:40:56;13.93;;;10.50;;
44428;SDS011;30134;47.866;-4.222;2023-07-22T10:43:24;12.43;;;9.88;;
44428;SDS011;30134;47.866;-4.222;2023-07-22T10:46:10;14.18;;;10.57;;
44428;SDS011;30134;47.866;-4.222;2023-07-22T10:48:45;14.50;;;10.60;;
44428;SDS011;30134;47.866;-4.222;2023-07-22T10:51:12;13.60;;;10.40;;
44428;SDS011;30134;47.866;-4.222;2023-07-22T10:56:14;15.98;;;10.32;;
44428;SDS011;30134;47.866;-4.222;2023-07-22T11:01:22;17.55;;;12.32;;
44428;SDS011;30134;47.866;-4.222;2023-07-22T11:11:54;14.30;;;10.50;;
44428;SDS011;30134;47.866;-4.222;2023-07-22T11:14:48;14.80;;;10.13;;
44428;SDS011;30134;47.866;-4.222;2023-07-22T11:17:16;13.57;;;9.80;;
44428;SDS011;30134;47.866;-4.222;2023-07-22T11:19:53;14.35;;;10.80;;
44428;SDS011;30134;47.866;-4.222;2023-07-22T11:22:20;13.70;;;10.48;;
44428;SDS011;30134;47.866;-4.222;2023-07-22T11:24:46;13.13;;;10.13;;
44428;SDS011;30134;47.866;-4.222;2023-07-22T11:27:12;13.75;;;10.30;;
44428;SDS011;30134;47.866;-4.222;2023-07-22T11:29:39;15.68;;;10.82;;
44428;SDS011;30134;47.866;-4.222;2023-07-22T11:32:06;13.68;;;11.10;;
44428;SDS011;30134;47.866;-4.222;2023-07-22T11:34:40;14.15;;;10.15;;
44428;SDS011;30134;47.866;-4.222;2023-07-22T11:37:06;14.57;;;10.60;;
44428;SDS011;30134;47.866;-4.222;2023-07-22T11:39:32;15.35;;;10.75;;
44428;SDS011;30134;47.866;-4.222;2023-07-22T11:42:00;13.75;;;10.63;;
44428;SDS011;30134;47.866;-4.222;2023-07-22T11:44:28;12.98;;;10.18;;
44428;SDS011;30134;47.866;-4.222;2023-07-22T11:46:59;13.65;;;10.90;;
44428;SDS011;30134;47.866;-4.222;2023-07-22T11:49:35;13.57;;;10.18;;
44428;SDS011;30134;47.866;-4.222;2023-07-22T11:52:06;15.55;;;9.93;;
44428;SDS011;30134;47.866;-4.222;2023-07-22T11:54:42;13.25;;;10.43;;
44428;SDS011;30134;47.866;-4.222;2023-07-22T11:59:49;11.65;;;9.75;;
44428;SDS011;30134;47.866;-4.222;2023-07-22T12:02:21;12.50;;;9.98;;
44428;SDS011;30134;47.866;-4.222;2023-07-22T12:04:55;13.15;;;10.38;;
44428;SDS011;30134;47.866;-4.222;2023-07-22T12:07:31;12.75;;;9.90;;
44428;SDS011;30134;47.866;-4.222;2023-07-22T12:10:00;15.75;;;10.23;;
44428;SDS011;30134;47.866;-4.222;2023-07-22T12:18:13;13.88;;;10.10;;
44428;SDS011;30134;47.866;-4.222;2023-07-22T12:20:33;12.88;;;9.95;;
44428;SDS011;30134;47.866;-4.222;2023-07-22T12:23:03;13.30;;;9.38;;
44428;SDS011;30134;47.866;-4.222;2023-07-22T12:25:29;13.20;;;9.68;;
44428;SDS011;30134;47.866;-4.222;2023-07-22T12:27:57;13.35;;;8.82;;
44428;SDS011;30134;47.866;-4.222;2023-07-22T12:30:23;16.23;;;9.18;;
44428;SDS011;30134;47.866;-4.222;2023-07-22T12:32:49;11.43;;;8.80;;
44428;SDS011;30134;47.866;-4.222;2023-07-22T12:35:24;14.68;;;9.15;;
44428;SDS011;30134;47.866;-4.222;2023-07-22T12:37:50;12.27;;;8.75;;
44428;SDS011;30134;47.866;-4.222;2023-07-22T12:40:16;11.52;;;8.57;;
44428;SDS011;30134;47.866;-4.222;2023-07-22T12:42:42;11.30;;;8.43;;
44428;SDS011;30134;47.866;-4.222;2023-07-22T12:45:09;11.55;;;8.52;;
44428;SDS011;30134;47.866;-4.222;2023-07-22T12:47:35;10.52;;;7.60;;
44428;SDS011;30134;47.866;-4.222;2023-07-22T12:50:02;15.68;;;8.85;;
44428;SDS011;30134;47.866;-4.222;2023-07-22T12:52:29;13.20;;;8.18;;
44428;SDS011;30134;47.866;-4.222;2023-07-22T12:54:55;15.82;;;8.75;;
44428;SDS011;30134;47.866;-4.222;2023-07-22T12:57:21;10.02;;;7.97;;
44428;SDS011;30134;47.866;-4.222;2023-07-22T12:59:47;11.48;;;8.25;;
44428;SDS011;30134;47.866;-4.222;2023-07-22T13:02:13;13.00;;;8.20;;
44428;SDS011;30134;47.866;-4.222;2023-07-22T13:04:39;13.52;;;8.57;;
44428;SDS011;30134;47.866;-4.222;2023-07-22T13:07:05;18.15;;;9.68;;
44428;SDS011;30134;47.866;-4.222;2023-07-22T13:09:31;12.82;;;7.85;;
44428;SDS011;30134;47.866;-4.222;2023-07-22T13:11:57;13.60;;;8.35;;
44428;SDS011;30134;47.866;-4.222;2023-07-22T13:14:23;15.10;;;8.70;;
44428;SDS011;30134;47.866;-4.222;2023-07-22T13:16:49;12.85;;;9.13;;
44428;SDS011;30134;47.866;-4.222;2023-07-22T13:19:15;10.02;;;8.25;;
44428;SDS011;30134;47.866;-4.222;2023-07-22T13:21:41;14.40;;;8.32;;
44428;SDS011;30134;47.866;-4.222;2023-07-22T13:24:07;13.82;;;9.52;;
44428;SDS011;30134;47.866;-4.222;2023-07-22T13:26:34;12.15;;;8.15;;
44428;SDS011;30134;47.866;-4.222;2023-07-22T13:29:01;11.60;;;8.52;;
44428;SDS011;30134;47.866;-4.222;2023-07-22T13:31:27;10.45;;;8.75;;
44428;SDS011;30134;47.866;-4.222;2023-07-22T13:33:53;12.65;;;9.43;;
44428;SDS011;30134;47.866;-4.222;2023-07-22T13:36:19;14.38;;;9.30;;
44428;SDS011;30134;47.866;-4.222;2023-07-22T13:38:44;14.98;;;9.38;;
44428;SDS011;30134;47.866;-4.222;2023-07-22T13:41:10;11.32;;;9.23;;
44428;SDS011;30134;47.866;-4.222;2023-07-22T13:43:36;12.88;;;8.60;;
44428;SDS011;30134;47.866;-4.222;2023-07-22T13:46:02;14.80;;;9.23;;
44428;SDS011;30134;47.866;-4.222;2023-07-22T13:48:29;13.43;;;9.48;;
44428;SDS011;30134;47.866;-4.222;2023-07-22T13:50:55;15.10;;;9.15;;
44428;SDS011;30134;47.866;-4.222;2023-07-22T13:53:20;16.13;;;9.90;;
44428;SDS011;30134;47.866;-4.222;2023-07-22T13:55:47;21.02;;;11.70;;
44428;SDS011;30134;47.866;-4.222;2023-07-22T13:58:13;68.22;;;43.92;;
44428;SDS011;30134;47.866;-4.222;2023-07-22T14:00:39;67.70;;;41.70;;
44428;SDS011;30134;47.866;-4.222;2023-07-22T14:03:05;52.38;;;35.47;;
44428;SDS011;30134;47.866;-4.222;2023-07-22T14:05:31;46.30;;;31.42;;
44428;SDS011;30134;47.866;-4.222;2023-07-22T14:07:57;42.83;;;29.35;;
44428;SDS011;30134;47.866;-4.222;2023-07-22T14:10:23;43.75;;;29.35;;
44428;SDS011;30134;47.866;-4.222;2023-07-22T14:12:49;39.80;;;26.33;;
44428;SDS011;30134;47.866;-4.222;2023-07-22T14:15:15;39.40;;;27.23;;
44428;SDS011;30134;47.866;-4.222;2023-07-22T14:17:44;34.95;;;24.38;;
44428;SDS011;30134;47.866;-4.222;2023-07-22T14:20:10;32.28;;;22.70;;
44428;SDS011;30134;47.866;-4.222;2023-07-22T14:22:39;35.75;;;23.45;;
44428;SDS011;30134;47.866;-4.222;2023-07-22T14:25:07;31.40;;;20.80;;
44428;SDS011;30134;47.866;-4.222;2023-07-22T14:27:33;31.67;;;21.75;;
44428;SDS011;30134;47.866;-4.222;2023-07-22T14:30:00;27.83;;;20.23;;
44428;SDS011;30134;47.866;-4.222;2023-07-22T14:32:29;27.77;;;19.70;;
44428;SDS011;30134;47.866;-4.222;2023-07-22T14:34:55;26.60;;;18.77;;
44428;SDS011;30134;47.866;-4.222;2023-07-22T14:37:22;23.30;;;16.70;;
44428;SDS011;30134;47.866;-4.222;2023-07-22T14:39:49;23.90;;;17.17;;
44428;SDS011;30134;47.866;-4.222;2023-07-22T14:42:15;24.08;;;16.38;;
44428;SDS011;30134;47.866;-4.222;2023-07-22T14:44:41;22.38;;;15.00;;
44428;SDS011;30134;47.866;-4.222;2023-07-22T14:47:07;20.77;;;16.20;;
44428;SDS011;30134;47.866;-4.222;2023-07-22T14:49:33;19.20;;;14.43;;
44428;SDS011;30134;47.866;-4.222;2023-07-22T14:51:59;19.65;;;14.68;;